Time;durP1;ratioP1;P1;durP2;ratioP2;P2;SDS_P1;SDS_P2;PMS_P1;PMS_P2;Temp;Humidity;BMP_temperature;BMP_pressure;BME280_temperature;BME280_humidity;BME280_pressure;Samples;Min_cycle;Max_cycle;Signal;HPM_P1;HPM_P2
2021/04/01 00:01:32;;;;;;;61.38;43.78;;;;;;;11.48;63.75;100228.63;5032082;28;20129;-78
2021/04/01 00:03:59;;;;;;;72.25;47.30;;;;;;;11.49;63.78;100219.72;5031872;28;20198;-77
2021/04/01 00:06:25;;;;;;;66.15;45.00;;;;;;;11.52;63.88;100216.84;5031956;28;20049;-78
2021/04/01 00:08:51;;;;;;;58.35;42.50;;;;;;;11.54;63.93;100214.06;5014393;28;20110;-77
2021/04/01 00:11:18;;;;;;;72.78;47.10;;;;;;;11.54;63.96;100207.00;5033037;28;20765;-78
2021/04/01 00:13:46;;;;;;;69.50;46.28;;;;;;;11.54;63.97;100203.50;5031607;28;20510;-77
2021/04/01 00:16:12;;;;;;;75.40;49.47;;;;;;;11.52;63.69;100200.97;5032482;28;20141;-78
2021/04/01 00:18:38;;;;;;;70.40;44.28;;;;;;;11.50;63.73;100196.75;5014751;28;20473;-78
2021/04/01 00:21:06;;;;;;;67.97;44.67;;;;;;;11.45;63.71;100191.81;5033437;28;20381;-78
2021/04/01 00:23:32;;;;;;;65.47;45.95;;;;;;;11.42;63.45;100184.13;5032512;28;20049;-79
2021/04/01 00:25:58;;;;;;;65.00;45.60;;;;;;;11.38;63.49;100190.59;5031707;28;20175;-78
2021/04/01 00:28:25;;;;;;;64.20;45.20;;;;;;;11.31;63.40;100186.75;5029557;28;20058;-79
2021/04/01 00:30:53;;;;;;;65.55;43.42;;;;;;;11.24;63.65;100181.09;5030322;28;20053;-77
2021/04/01 00:33:22;;;;;;;59.50;42.22;;;;;;;11.24;63.73;100181.94;5014275;28;20096;-78
2021/04/01 00:35:48;;;;;;;63.83;45.30;;;;;;;11.24;63.77;100175.81;5031908;28;20049;-78
2021/04/01 00:38:15;;;;;;;62.20;40.13;;;;;;;11.21;63.67;100174.22;5031466;28;20466;-79
2021/04/01 00:40:43;;;;;;;70.00;45.47;;;;;;;11.24;63.71;100165.25;5032015;28;20055;-77
2021/04/01 00:43:09;;;;;;;62.13;43.40;;;;;;;11.24;64.01;100166.06;5033100;28;20091;-79
2021/04/01 00:45:35;;;;;;;61.03;41.47;;;;;;;11.22;63.55;100157.44;5023330;28;20515;-79
2021/04/01 00:48:03;;;;;;;55.33;40.67;;;;;;;11.20;63.92;100153.19;5033027;28;20049;-79
2021/04/01 00:50:31;;;;;;;59.80;40.55;;;;;;;11.20;63.69;100151.41;5031391;28;20707;-79
2021/04/01 00:52:59;;;;;;;61.17;41.33;;;;;;;11.19;63.66;100152.38;5031430;28;20049;-77
2021/04/01 00:55:27;;;;;;;56.10;39.88;;;;;;;11.14;63.34;100140.47;5034387;28;20056;-78
2021/04/01 00:57:58;;;;;;;60.92;43.35;;;;;;;11.11;63.46;100138.91;5034252;28;20058;-79
2021/04/01 01:00:27;;;;;;;60.17;41.65;;;;;;;11.04;63.33;100133.25;5035368;28;20396;-78
2021/04/01 01:02:53;;;;;;;60.28;44.58;;;;;;;10.97;63.38;100133.84;5036109;28;20069;-79
2021/04/01 01:05:23;;;;;;;58.20;40.17;;;;;;;10.92;63.48;100128.06;5033943;28;20184;-79
2021/04/01 01:07:51;;;;;;;62.08;39.58;;;;;;;10.86;63.42;100124.91;5034906;28;20723;-78
2021/04/01 01:10:28;;;;;;;57.85;43.08;;;;;;;10.85;63.44;100119.75;5038509;28;20042;-78
2021/04/01 01:12:59;;;;;;;67.28;41.40;;;;;;;10.80;63.56;100117.44;5038859;28;20080;-79
2021/04/01 01:15:26;;;;;;;56.80;38.03;;;;;;;10.77;63.48;100115.03;5038687;28;20198;-79
2021/04/01 01:17:54;;;;;;;68.03;44.75;;;;;;;10.77;63.36;100111.53;5036754;28;20492;-78
2021/04/01 01:20:23;;;;;;;64.07;41.75;;;;;;;10.70;63.33;100111.19;5033396;28;20106;-78
2021/04/01 01:22:51;;;;;;;61.35;41.22;;;;;;;10.65;63.59;100108.03;5037549;28;20133;-78
2021/04/01 01:25:22;;;;;;;56.25;40.30;;;;;;;10.68;63.68;100098.09;5033189;28;20080;-78
2021/04/01 01:27:49;;;;;;;65.15;42.05;;;;;;;10.67;63.87;100100.84;5033444;28;20073;-78
2021/04/01 01:30:19;;;;;;;57.78;39.92;;;;;;;10.64;63.80;100098.41;5033403;28;20049;-80
2021/04/01 01:32:49;;;;;;;58.72;38.33;;;;;;;10.60;63.66;100092.53;5033882;28;20057;-77
2021/04/01 01:35:17;;;;;;;59.45;39.72;;;;;;;10.58;63.89;100099.72;5035222;28;20041;-79
2021/04/01 01:37:55;;;;;;;55.97;39.97;;;;;;;10.61;63.82;100094.22;5035023;28;20269;-79
2021/04/01 01:40:24;;;;;;;52.75;36.35;;;;;;;10.59;63.80;100093.50;5033283;28;20071;-77
2021/04/01 01:42:53;;;;;;;58.13;38.60;;;;;;;10.62;64.20;100087.13;5034921;28;20282;-77
2021/04/01 01:45:22;;;;;;;56.85;37.63;;;;;;;10.70;64.17;100088.25;5037034;28;20041;-78
2021/04/01 01:47:49;;;;;;;54.53;38.70;;;;;;;10.76;64.26;100083.47;5017399;28;20045;-77
2021/04/01 01:50:16;;;;;;;53.92;37.55;;;;;;;10.78;64.25;100085.00;5033721;28;20055;-78
2021/04/01 01:52:43;;;;;;;55.92;39.20;;;;;;;10.81;64.46;100076.84;5034691;28;20049;-80
2021/04/01 01:55:12;;;;;;;55.90;35.80;;;;;;;10.86;64.32;100068.59;5016883;28;20144;-79
2021/04/01 01:57:42;;;;;;;56.42;35.72;;;;;;;10.95;64.46;100061.72;5032712;28;20049;-76
2021/04/01 02:00:11;;;;;;;51.83;36.30;;;;;;;11.02;64.38;100060.31;5035622;28;20049;-79
2021/04/01 02:02:38;;;;;;;52.85;33.17;;;;;;;11.07;64.50;100060.78;5026998;28;20133;-77
2021/04/01 02:05:06;;;;;;;45.25;31.42;;;;;;;11.13;64.39;100060.34;5034247;28;20138;-79
2021/04/01 02:07:33;;;;;;;52.33;34.40;;;;;;;11.17;64.37;100058.28;5034348;28;20080;-78
2021/04/01 02:10:00;;;;;;;49.65;34.30;;;;;;;11.19;64.43;100057.19;5034270;28;20048;-78
2021/04/01 02:12:27;;;;;;;48.55;32.42;;;;;;;11.23;64.29;100058.63;5034608;28;20401;-77
2021/04/01 02:14:55;;;;;;;48.35;34.67;;;;;;;11.23;64.20;100060.44;5035145;28;20083;-78
2021/04/01 02:17:24;;;;;;;46.10;33.70;;;;;;;11.23;64.32;100063.09;5036017;28;20041;-78
2021/04/01 02:19:56;;;;;;;49.72;35.30;;;;;;;11.24;64.36;100057.69;5034728;28;20162;-79
2021/04/01 02:22:23;;;;;;;46.15;32.90;;;;;;;11.21;64.26;100052.63;5035543;28;20056;-78
2021/04/01 02:24:49;;;;;;;54.47;34.25;;;;;;;11.18;64.29;100050.25;5034515;28;20113;-79
2021/04/01 02:27:15;;;;;;;50.53;34.58;;;;;;;11.18;64.22;100046.75;5033682;28;20042;-79
2021/04/01 02:29:42;;;;;;;57.22;38.17;;;;;;;11.15;64.45;100050.47;5036229;28;20053;-78
2021/04/01 02:32:10;;;;;;;53.65;34.42;;;;;;;11.07;64.43;100048.44;5035130;28;20091;-78
2021/04/01 02:34:38;;;;;;;51.35;36.22;;;;;;;11.02;64.47;100050.59;5017463;28;20123;-78
2021/04/01 02:37:05;;;;;;;59.85;35.30;;;;;;;10.94;64.49;100046.84;5033340;28;20643;-79
2021/04/01 02:39:32;;;;;;;53.35;35.75;;;;;;;10.85;64.55;100038.66;5033453;28;20147;-80
2021/04/01 02:41:58;;;;;;;54.40;36.28;;;;;;;10.77;64.63;100041.06;5033210;28;20565;-78
2021/04/01 02:44:25;;;;;;;51.35;38.10;;;;;;;10.77;64.83;100045.50;5034553;28;20059;-79
2021/04/01 02:46:51;;;;;;;50.28;34.97;;;;;;;10.78;64.95;100042.75;5032813;28;20107;-80
2021/04/01 02:49:19;;;;;;;53.33;35.35;;;;;;;10.78;64.88;100037.47;5032555;28;20061;-77
2021/04/01 02:51:45;;;;;;;56.10;34.92;;;;;;;10.79;65.04;100043.59;5032187;28;20129;-76
2021/04/01 02:54:11;;;;;;;51.85;36.78;;;;;;;10.83;65.13;100030.03;5035694;28;20042;-78
2021/04/01 02:56:38;;;;;;;48.03;35.70;;;;;;;10.86;64.75;100027.16;5036023;28;20095;-78
2021/04/01 02:59:05;;;;;;;50.75;36.60;;;;;;;10.87;64.91;100031.47;5035077;28;20049;-79
2021/04/01 03:01:31;;;;;;;57.05;39.55;;;;;;;10.86;65.13;100024.50;5035100;28;20045;-77
2021/04/01 03:03:59;;;;;;;58.00;39.65;;;;;;;10.89;65.22;100024.28;5035409;28;20080;-77
2021/04/01 03:06:27;;;;;;;60.83;41.28;;;;;;;10.90;64.84;100025.94;5035437;28;20045;-78
2021/04/01 03:08:53;;;;;;;51.08;39.03;;;;;;;10.81;64.52;100021.38;5035776;28;20053;-77
2021/04/01 03:11:22;;;;;;;58.53;39.78;;;;;;;10.73;64.62;100023.75;5017790;28;20042;-78
2021/04/01 03:13:48;;;;;;;61.00;40.80;;;;;;;10.67;64.57;100026.88;5035482;28;20512;-80
2021/04/01 03:16:15;;;;;;;61.13;42.38;;;;;;;10.62;64.68;100018.47;5033209;28;20057;-80
2021/04/01 03:18:41;;;;;;;60.17;43.30;;;;;;;10.62;65.01;100015.81;5033462;28;20057;-77
2021/04/01 03:21:08;;;;;;;66.18;43.22;;;;;;;10.64;65.13;100019.19;5035700;28;20099;-78
2021/04/01 03:23:35;;;;;;;65.50;42.83;;;;;;;10.65;65.16;100019.06;5035597;28;20142;-77
2021/04/01 03:26:01;;;;;;;62.95;45.80;;;;;;;10.66;65.21;100010.19;5034776;28;20048;-77
2021/04/01 03:28:28;;;;;;;64.60;43.70;;;;;;;10.70;65.41;100014.28;5033976;28;20045;-77
2021/04/01 03:31:00;;;;;;;67.93;42.03;;;;;;;10.67;64.82;100014.50;5036128;28;20056;-78
2021/04/01 03:33:26;;;;;;;59.08;42.75;;;;;;;10.61;64.59;100014.16;5033818;28;20057;-78
2021/04/01 03:35:53;;;;;;;64.05;41.58;;;;;;;10.54;64.64;100008.50;5034624;28;20122;-79
2021/04/01 03:38:19;;;;;;;60.88;41.55;;;;;;;10.45;64.44;100010.03;5033610;28;20662;-79
2021/04/01 03:40:51;;;;;;;62.35;42.05;;;;;;;10.38;64.51;100007.97;5033148;28;20053;-79
2021/04/01 03:43:17;;;;;;;63.53;42.38;;;;;;;10.28;64.38;100007.78;5034497;28;20057;-78
2021/04/01 03:45:44;;;;;;;59.88;44.15;;;;;;;10.19;64.37;100003.19;5034613;28;20312;-78
2021/04/01 03:48:11;;;;;;;61.72;40.05;;;;;;;10.12;64.51;100001.03;5032787;28;20064;-77
2021/04/01 03:50:37;;;;;;;57.10;41.35;;;;;;;10.07;64.65;99997.06;5035466;28;20053;-81
2021/04/01 03:53:04;;;;;;;69.53;44.15;;;;;;;10.02;64.58;99991.28;5034277;28;20197;-78
2021/04/01 04:01:27;;;;;;;68.97;47.00;;;;;;;9.87;64.84;99987.97;5034955;28;20056;-80
2021/04/01 04:04:02;;;;;;;62.58;44.33;;;;;;;9.84;65.31;99985.56;5034891;28;20140;-79
2021/04/01 04:06:46;;;;;;;69.75;47.38;;;;;;;9.83;65.35;99984.72;5035150;28;20109;-78
2021/04/01 04:09:31;;;;;;;68.50;47.85;;;;;;;9.80;65.58;99984.13;5034469;28;20092;-78
2021/04/01 04:12:06;;;;;;;64.28;45.85;;;;;;;9.82;65.24;99980.41;5034972;28;20046;-80
2021/04/01 04:14:36;;;;;;;;;;;;;;;10.13;64.37;99983.38;5034858;28;20124;-78
2021/04/01 04:17:02;;;;;;;61.67;42.42;;;;;;;9.90;64.87;99977.19;5031885;28;20028;-79
2021/04/01 04:19:28;;;;;;;66.95;45.60;;;;;;;9.86;65.16;99967.81;5032980;28;20115;-78
2021/04/01 04:21:55;;;;;;;62.10;45.95;;;;;;;9.86;65.04;99966.00;5033115;28;20057;-82
2021/04/01 04:24:22;;;;;;;65.47;44.83;;;;;;;9.86;65.26;99966.00;5033866;28;20045;-78
2021/04/01 04:26:50;;;;;;;75.38;49.58;;;;;;;9.91;65.29;99955.13;5032464;28;20053;-78
2021/04/01 04:29:17;;;;;;;70.72;49.85;;;;;;;9.99;65.48;99949.28;5033433;28;20049;-77
2021/04/01 04:31:45;;;;;;;68.38;46.58;;;;;;;10.06;65.42;99953.97;5014391;28;20041;-78
2021/04/01 04:34:11;;;;;;;64.00;43.10;;;;;;;10.09;65.19;99945.00;5033070;28;20103;-77
2021/04/01 04:36:38;;;;;;;59.00;40.78;;;;;;;10.08;65.25;99941.53;5031168;28;20590;-77
2021/04/01 04:39:05;;;;;;;66.20;46.00;;;;;;;10.13;65.29;99941.16;5032504;28;20126;-77
2021/04/01 04:41:31;;;;;;;68.55;46.22;;;;;;;10.22;65.17;99942.28;5033689;28;20046;-83
2021/04/01 04:43:58;;;;;;;73.10;47.78;;;;;;;10.28;65.10;99934.75;5035086;28;20049;-79
2021/04/01 04:46:24;;;;;;;66.63;42.22;;;;;;;10.40;64.95;99938.25;5033522;28;20414;-81
2021/04/01 04:48:53;;;;;;;71.65;46.45;;;;;;;10.49;65.03;99929.63;5033429;28;20700;-79
2021/04/01 04:51:19;;;;;;;58.53;43.90;;;;;;;10.61;64.89;99929.66;5033564;28;20045;-78
2021/04/01 04:53:46;;;;;;;62.03;42.80;;;;;;;10.77;64.58;99934.53;5034476;28;20057;-77
2021/04/01 04:56:14;;;;;;;67.32;45.42;;;;;;;10.98;64.22;99932.84;5032070;28;20048;-76
2021/04/01 04:58:48;;;;;;;64.63;43.90;;;;;;;11.19;63.72;99924.19;5032816;28;20096;-78
2021/04/01 05:04:38;;;;;;;59.80;42.65;;;;;;;11.31;63.19;99923.22;5034401;28;20050;-79
2021/04/01 05:06:54;;;;;;;60.63;40.20;;;;;;;11.56;62.78;99921.19;5032823;28;20157;-81
2021/04/01 05:09:21;;;;;;;56.05;41.22;;;;;;;11.62;62.58;99926.81;5032730;28;20068;-77
2021/04/01 05:11:49;;;;;;;60.22;41.75;;;;;;;11.68;62.04;99922.84;5027656;28;20046;-76
2021/04/01 05:14:15;;;;;;;65.65;43.53;;;;;;;11.70;61.92;99926.19;5030657;28;20486;-76
2021/04/01 05:16:42;;;;;;;58.50;43.17;;;;;;;11.70;61.86;99920.06;5028165;28;20045;-79
2021/04/01 05:19:12;;;;;;;66.60;44.88;;;;;;;11.69;61.99;99921.06;5028369;28;20053;-79
2021/04/01 05:21:47;;;;;;;59.08;41.05;;;;;;;11.65;61.68;99923.94;5031632;28;20060;-79
2021/04/01 05:24:17;;;;;;;63.95;45.15;;;;;;;11.67;61.89;99916.72;5029840;28;20049;-78
2021/04/01 05:29:32;;;;;;;74.85;52.67;;;;;;;11.70;61.65;99906.84;5034909;28;20076;-81
2021/04/01 05:31:59;;;;;;;73.47;51.33;;;;;;;11.72;61.56;99910.19;5030248;28;20255;-80
2021/04/01 05:34:28;;;;;;;68.03;48.63;;;;;;;11.76;61.55;99907.19;5032269;28;20132;-78
2021/04/01 05:36:55;;;;;;;65.50;49.83;;;;;;;11.86;61.45;99899.31;5031681;28;20049;-82
2021/04/01 05:39:26;;;;;;;65.45;49.85;;;;;;;11.93;61.36;99895.19;5028707;28;20050;-76
2021/04/01 05:41:53;;;;;;;71.07;48.20;;;;;;;12.03;61.13;99896.13;5026559;28;20228;-75
2021/04/01 05:44:23;;;;;;;65.97;46.55;;;;;;;12.14;61.01;99899.69;5027786;28;20076;-76
2021/04/01 05:46:56;;;;;;;60.85;46.80;;;;;;;12.25;60.87;99902.25;5026159;28;20069;-75
2021/04/01 05:49:36;;;;;;;67.28;44.85;;;;;;;12.37;60.73;99895.03;5009982;28;20688;-74
2021/04/01 05:58:11;;;;;;;70.38;44.05;;;;;;;12.76;60.54;99876.66;5027025;28;20060;-79
2021/04/01 06:00:56;;;;;;;58.75;42.92;;;;;;;12.93;60.12;99883.16;5028277;28;20390;-77
2021/04/01 06:03:37;;;;;;;65.15;42.45;;;;;;;13.14;60.09;99875.94;5009879;28;20050;-81
2021/04/01 06:06:06;;;;;;;63.22;41.72;;;;;;;13.35;59.71;99878.50;5022526;28;20053;-79
2021/04/01 06:08:41;;;;;;;59.83;42.72;;;;;;;13.56;59.50;99878.38;5028961;28;20041;-79
2021/04/01 06:11:07;;;;;;;69.32;45.78;;;;;;;13.82;59.05;99877.78;5029001;28;20056;-80
2021/04/01 06:13:45;;;;;;;57.53;41.60;;;;;;;14.04;58.66;99867.84;5028032;28;20118;-80
2021/04/01 06:16:13;;;;;;;59.00;40.03;;;;;;;14.27;58.27;99868.34;5028202;28;20060;-78
2021/04/01 06:18:42;;;;;;;54.00;36.35;;;;;;;14.43;58.07;99865.91;5026283;28;20056;-78
2021/04/01 06:21:12;;;;;;;50.08;35.75;;;;;;;14.60;57.72;99866.16;5027791;28;20125;-76
2021/04/01 06:23:43;;;;;;;50.08;38.42;;;;;;;14.83;57.38;99863.94;5026740;28;20558;-75
2021/04/01 06:26:16;;;;;;;52.65;38.10;;;;;;;15.18;56.77;99862.31;5032060;28;20043;-78
2021/04/01 06:28:47;;;;;;;55.63;38.70;;;;;;;15.51;56.24;99862.66;5024030;28;20042;-80
2021/04/01 06:31:17;;;;;;;54.88;38.15;;;;;;;15.77;55.47;99871.56;5025330;28;20124;-80
2021/04/01 06:33:47;;;;;;;49.58;36.70;;;;;;;16.00;54.98;99865.72;5025445;28;20049;-77
2021/04/01 06:36:19;;;;;;;56.33;36.78;;;;;;;16.18;54.54;99863.84;5025583;28;20077;-81
2021/04/01 06:38:47;;;;;;;45.35;34.17;;;;;;;16.20;54.18;99867.19;5025404;28;20045;-76
2021/04/01 06:41:24;;;;;;;54.97;38.15;;;;;;;16.19;54.42;99862.03;5024751;28;20049;-78
2021/04/01 06:44:18;;;;;;;52.25;39.88;;;;;;;16.18;54.54;99863.84;5024299;28;20164;-77
2021/04/01 06:46:46;;;;;;;47.78;36.83;;;;;;;16.20;54.57;99861.03;4961944;28;20054;-75
2021/04/01 06:49:35;;;;;;;48.42;37.90;;;;;;;16.19;54.76;99859.38;4962301;28;20644;-78
2021/04/01 06:52:14;;;;;;;52.38;37.28;;;;;;;16.17;54.72;99856.88;4962109;28;20090;-77
2021/04/01 06:54:55;;;;;;;51.47;38.67;;;;;;;16.20;54.92;99855.69;4960828;28;20042;-73
2021/04/01 06:57:39;;;;;;;52.35;38.88;;;;;;;16.22;54.92;99856.38;4957730;28;20062;-70
2021/04/01 07:00:14;;;;;;;53.25;41.65;;;;;;;16.27;54.83;99854.06;4959366;28;20046;-74
2021/04/01 07:02:47;;;;;;;51.72;37.80;;;;;;;16.38;54.88;99853.78;4960145;28;20087;-73
2021/04/01 07:05:26;;;;;;;53.17;38.90;;;;;;;16.53;54.35;99854.06;4958750;28;20054;-74
2021/04/01 07:07:59;;;;;;;53.65;36.60;;;;;;;16.79;54.01;99855.81;4959145;28;20046;-75
2021/04/01 07:10:41;;;;;;;52.28;36.53;;;;;;;17.14;53.43;99843.25;4959379;28;20168;-72
2021/04/01 07:13:10;;;;;;;43.85;33.58;;;;;;;17.53;52.32;99842.66;4958208;28;20062;-75
2021/04/01 07:15:41;;;;;;;51.53;36.00;;;;;;;17.93;51.17;99841.00;4957908;28;20059;-72
2021/04/01 07:18:24;;;;;;;50.75;34.80;;;;;;;18.26;50.04;99843.63;4956895;28;20058;-73
2021/04/01 07:21:16;;;;;;;45.20;34.25;;;;;;;18.50;49.70;99838.16;4956383;28;20043;-68
2021/04/01 07:35:08;;;;;;;47.60;33.45;;;;;;;18.95;48.19;99838.50;5022787;28;20056;-72
2021/04/01 07:49:03;;;;;;;46.58;36.88;;;;;;;18.63;47.84;99834.13;5080278;27;20962;-72
2021/04/01 07:51:47;;;;;;;50.28;34.38;;;;;;;18.45;48.02;99831.69;5081321;28;20199;-72
2021/04/01 07:54:15;;;;;;;46.80;32.85;;;;;;;18.39;48.56;99833.22;5079962;28;20040;-74
2021/04/01 07:56:45;;;;;;;40.45;31.80;;;;;;;18.44;48.32;99820.16;5081945;28;20052;-74
2021/04/01 07:59:27;;;;;;;46.25;33.95;;;;;;;18.51;48.66;99812.25;5078222;28;20044;-73
2021/04/01 08:02:11;;;;;;;44.15;31.48;;;;;;;18.75;48.09;99810.50;5080280;28;20083;-74
2021/04/01 08:04:42;;;;;;;42.42;33.38;;;;;;;19.08;47.63;99809.31;5080809;28;20538;-74
2021/04/01 08:07:12;;;;;;;45.30;30.98;;;;;;;19.37;46.87;99804.25;5082681;28;20048;-75
2021/04/01 08:09:54;;;;;;;49.72;30.63;;;;;;;19.62;46.40;99799.53;5080901;28;20044;-72
2021/04/01 08:12:24;;;;;;;54.17;39.67;;;;;;;19.95;45.52;99796.56;5081300;28;20905;-73
2021/04/01 08:14:55;;;;;;;41.67;33.00;;;;;;;20.07;45.19;99795.09;5081270;28;20052;-72
2021/04/01 08:17:27;;;;;;;42.17;28.95;;;;;;;20.43;45.09;99788.97;5084092;28;20051;-73
2021/04/01 08:20:00;;;;;;;37.45;29.15;;;;;;;21.18;43.84;99785.09;5082078;28;20053;-76
2021/04/01 08:22:29;;;;;;;38.78;30.52;;;;;;;21.88;42.20;99781.78;5081579;28;20044;-74
2021/04/01 08:25:02;;;;;;;39.92;33.53;;;;;;;22.04;40.74;99786.00;5081575;28;20076;-73
2021/04/01 08:27:42;;;;;;;38.38;28.45;;;;;;;21.94;40.88;99781.81;5060377;28;20081;-72
2021/04/01 08:35:52;;;;;;;38.85;28.10;;;;;;;22.41;40.64;99763.25;5022251;28;20041;-72
2021/04/01 08:38:20;;;;;;;35.38;27.83;;;;;;;22.43;40.80;99760.38;5019116;28;20053;-74
2021/04/01 08:40:50;;;;;;;39.72;26.50;;;;;;;22.45;40.88;99775.28;5022762;28;20038;-74
2021/04/01 08:43:39;;;;;;;40.75;27.73;;;;;;;22.35;41.35;99772.16;5020631;28;20356;-72
2021/04/01 08:46:23;;;;;;;35.97;27.02;;;;;;;22.31;41.70;99773.59;5021853;28;20041;-74
2021/04/01 08:49:19;;;;;;;37.72;26.60;;;;;;;22.30;41.93;99769.22;5022098;28;20834;-74
2021/04/01 08:52:25;;;;;;;33.67;24.63;;;;;;;22.31;41.42;99755.56;4964465;28;20055;-73
2021/04/01 08:55:03;;;;;;;37.40;25.92;;;;;;;22.10;41.44;99769.91;4964223;28;20054;-74
2021/04/01 08:57:38;;;;;;;28.60;22.48;;;;;;;22.12;41.21;99761.66;4960731;28;20043;-73
2021/04/01 09:00:08;;;;;;;;;;;;;;;22.68;41.04;99756.13;4955472;28;20058;-73
2021/04/01 09:02:36;;;;;;;33.03;21.25;;;;;;;22.64;40.41;99749.47;4952234;28;19929;-72
2021/04/01 09:05:06;;;;;;;34.75;22.48;;;;;;;22.74;40.14;99742.88;4949917;28;20555;-71
2021/04/01 09:07:40;;;;;;;38.60;24.73;;;;;;;22.91;39.80;99742.28;5001841;28;20097;-76
2021/04/01 09:10:14;;;;;;;39.00;24.33;;;;;;;23.11;39.74;99738.03;5009721;28;20050;-75
2021/04/01 09:12:45;;;;;;;31.77;22.00;;;;;;;23.32;38.91;99734.28;5009222;28;20081;-75
2021/04/01 09:15:21;;;;;;;31.20;19.58;;;;;;;23.59;38.36;99730.53;5008119;28;20042;-75
2021/04/01 09:17:47;;;;;;;33.75;20.20;;;;;;;23.82;37.12;99732.81;5005904;28;20691;-74
2021/04/01 09:20:17;;;;;;;29.67;19.42;;;;;;;23.96;36.88;99725.50;5011228;28;20056;-74
2021/04/01 09:22:47;;;;;;;28.45;17.40;;;;;;;24.05;36.69;99723.41;5012433;28;20111;-74
2021/04/01 09:25:14;;;;;;;24.48;16.77;;;;;;;24.29;35.84;99718.34;4993912;28;20133;-73
2021/04/01 09:27:50;;;;;;;23.17;15.38;;;;;;;24.47;35.76;99714.94;5010837;28;20455;-73
2021/04/01 09:30:18;;;;;;;21.60;15.07;;;;;;;24.57;35.27;99718.84;5049412;28;20053;-74
2021/04/01 09:32:47;;;;;;;27.70;18.55;;;;;;;24.74;34.63;99712.94;5053432;28;20041;-72
2021/04/01 09:35:15;;;;;;;24.98;18.38;;;;;;;24.40;34.48;99715.81;5051507;28;20041;-74
2021/04/01 09:37:58;;;;;;;26.63;18.88;;;;;;;24.43;36.73;99710.00;5051064;28;20056;-74
2021/04/01 09:40:30;;;;;;;27.92;17.35;;;;;;;24.74;35.36;99699.44;5051362;28;20060;-73
2021/04/01 09:43:09;;;;;;;29.13;20.80;;;;;;;24.93;35.01;99694.97;5049885;28;20048;-69
2021/04/01 09:45:36;;;;;;;31.30;20.80;;;;;;;24.90;35.14;99700.78;5050444;28;20045;-72
2021/04/01 09:48:04;;;;;;;33.15;20.48;;;;;;;24.69;34.96;99697.41;5050307;28;20068;-71
2021/04/01 09:50:32;;;;;;;27.90;20.17;;;;;;;24.87;35.17;99699.38;5048603;28;20048;-72
2021/04/01 09:53:01;;;;;;;29.70;21.17;;;;;;;25.18;34.85;99701.19;5050133;28;20123;-71
2021/04/01 09:55:39;;;;;;;31.83;20.65;;;;;;;25.55;34.42;99695.06;5045678;28;20731;-70
2021/04/01 09:58:21;;;;;;;36.00;20.52;;;;;;;25.84;34.13;99692.69;5045209;28;20045;-70
2021/04/01 10:01:09;;;;;;;26.25;15.75;;;;;;;25.89;32.85;99685.59;5048258;28;20118;-71
2021/04/01 10:03:40;;;;;;;23.45;13.40;;;;;;;25.83;32.42;99680.25;5047614;28;20049;-70
2021/04/01 10:06:07;;;;;;;29.15;17.00;;;;;;;25.60;32.15;99676.31;5050092;28;20049;-69
2021/04/01 10:08:36;;;;;;;25.25;15.98;;;;;;;25.41;31.05;99671.91;5050051;28;20048;-72
2021/04/01 10:11:23;;;;;;;26.33;17.05;;;;;;;24.61;29.54;99671.50;5043329;28;20053;-71
2021/04/01 10:14:04;;;;;;;32.38;19.50;;;;;;;23.99;30.44;99681.13;5049385;28;20049;-71
2021/04/01 10:16:31;;;;;;;29.80;16.27;;;;;;;23.55;31.65;99677.25;5046797;28;20055;-71
2021/04/01 10:18:59;;;;;;;26.50;17.27;;;;;;;23.50;31.83;99682.44;5043538;28;20048;-72
2021/04/01 10:21:26;;;;;;;24.75;13.63;;;;;;;23.42;31.22;99687.00;5046934;28;20041;-71
2021/04/01 10:23:57;;;;;;;27.27;16.88;;;;;;;23.39;30.40;99675.81;5049090;28;20071;-71
2021/04/01 10:26:30;;;;;;;25.98;16.75;;;;;;;23.24;31.10;99671.47;5049284;28;20094;-71
2021/04/01 10:29:00;;;;;;;28.55;17.23;;;;;;;23.08;29.94;99670.06;5048677;28;20052;-72
2021/04/01 10:31:27;;;;;;;24.27;14.13;;;;;;;23.12;30.50;99677.69;5053535;28;20045;-71
2021/04/01 10:34:09;;;;;;;28.88;17.95;;;;;;;22.89;30.45;99671.66;5046911;28;20051;-70
2021/04/01 10:36:40;;;;;;;23.30;14.95;;;;;;;22.76;31.15;99671.66;5043894;28;20048;-68
2021/04/01 10:39:10;;;;;;;30.20;17.88;;;;;;;22.68;31.60;99664.59;5046929;28;20048;-70
2021/04/01 10:41:49;;;;;;;32.58;18.08;;;;;;;22.62;31.10;99651.13;5047407;28;20055;-68
2021/04/01 10:44:17;;;;;;;32.75;18.77;;;;;;;22.51;31.22;99658.78;5045453;28;20148;-69
2021/04/01 10:46:49;;;;;;;29.48;17.88;;;;;;;22.50;31.68;99650.91;5046870;28;20431;-68
2021/04/01 10:49:20;;;;;;;28.13;16.25;;;;;;;22.62;31.65;99651.13;5047538;28;20052;-69
2021/04/01 10:51:52;;;;;;;25.55;15.43;;;;;;;22.67;29.44;99646.78;5047585;28;20060;-71
2021/04/01 10:54:19;;;;;;;22.02;14.07;;;;;;;22.95;28.67;99642.25;5046168;28;20049;-72
2021/04/01 10:56:48;;;;;;;21.98;14.23;;;;;;;22.97;27.98;99630.22;5047653;28;20121;-71
2021/04/01 10:59:14;;;;;;;19.23;11.68;;;;;;;23.09;27.87;99633.16;5045877;28;20049;-70
2021/04/01 11:01:43;;;;;;;22.00;11.45;;;;;;;23.22;27.26;99637.72;5039906;28;20056;-71
2021/04/01 11:04:13;;;;;;;18.27;12.02;;;;;;;23.01;24.35;99626.09;5043477;28;20181;-70
2021/04/01 11:06:46;;;;;;;27.40;16.52;;;;;;;22.83;25.68;99629.41;5045515;28;20043;-72
2021/04/01 11:09:13;;;;;;;29.38;15.95;;;;;;;22.67;26.63;99625.25;5045639;28;20067;-73
2021/04/01 11:12:04;;;;;;;20.70;12.18;;;;;;;22.64;27.74;99625.66;5047217;28;20051;-73
2021/04/01 11:14:32;;;;;;;22.02;12.13;;;;;;;22.77;26.79;99627.53;5048305;28;20041;-73
2021/04/01 11:17:00;;;;;;;22.15;13.13;;;;;;;22.71;26.48;99618.44;5048002;28;20049;-75
2021/04/01 11:19:33;;;;;;;21.70;12.35;;;;;;;22.61;27.24;99625.25;5039819;28;20141;-74
2021/04/01 11:22:04;;;;;;;23.95;15.05;;;;;;;22.49;27.16;99628.56;5033666;28;20252;-74
2021/04/01 11:24:31;;;;;;;22.50;14.45;;;;;;;22.48;27.03;99626.88;5028340;28;20075;-73
2021/04/01 11:27:09;;;;;;;23.60;14.07;;;;;;;22.38;26.30;99617.53;5020321;28;20049;-73
2021/04/01 11:29:36;;;;;;;24.80;13.88;;;;;;;22.30;25.93;99613.19;5018369;28;20150;-72
2021/04/01 11:32:18;;;;;;;23.80;13.93;;;;;;;22.27;26.38;99611.75;5017994;28;20693;-73
2021/04/01 11:34:47;;;;;;;18.98;12.32;;;;;;;22.37;27.08;99608.66;5019211;28;20057;-74
2021/04/01 11:37:17;;;;;;;23.70;12.40;;;;;;;22.79;27.04;99611.19;5020255;28;20057;-72
2021/04/01 11:39:44;;;;;;;21.90;14.15;;;;;;;22.85;25.91;99607.66;5018915;28;20064;-71
2021/04/01 11:42:14;;;;;;;22.17;13.00;;;;;;;22.93;26.52;99594.00;5016702;28;20060;-71
2021/04/01 11:44:42;;;;;;;23.85;14.38;;;;;;;22.78;26.56;99599.59;5018865;28;20048;-71
2021/04/01 11:47:19;;;;;;;20.20;13.57;;;;;;;22.86;26.76;99595.84;5020406;28;20045;-74
2021/04/01 11:49:47;;;;;;;22.05;11.90;;;;;;;22.90;27.02;99594.41;5018131;28;20111;-73
2021/04/01 11:52:16;;;;;;;28.85;15.18;;;;;;;22.94;27.04;99587.56;5017223;28;20056;-73
2021/04/01 11:54:42;;;;;;;21.08;14.10;;;;;;;22.93;26.16;99601.25;5017857;28;20183;-71
2021/04/01 11:57:26;;;;;;;21.02;13.88;;;;;;;23.10;26.30;99591.72;5016253;28;20045;-74
2021/04/01 11:59:56;;;;;;;22.65;13.63;;;;;;;23.40;26.05;99581.28;5016173;28;20112;-70
2021/04/01 12:02:25;;;;;;;24.95;15.65;;;;;;;23.43;25.84;99585.44;5020676;28;20104;-73
2021/04/01 12:04:56;;;;;;;27.15;17.05;;;;;;;23.42;25.35;99578.38;5037621;28;20057;-70
2021/04/01 12:07:22;;;;;;;21.52;13.23;;;;;;;23.48;25.38;99583.78;5022026;28;20046;-72
2021/04/01 12:09:50;;;;;;;20.70;12.30;;;;;;;23.57;25.48;99578.97;5019657;28;20106;-71
2021/04/01 12:12:28;;;;;;;18.08;10.85;;;;;;;23.67;25.23;99571.25;5018563;28;20071;-75
2021/04/01 12:14:54;;;;;;;24.55;14.95;;;;;;;23.66;24.25;99569.59;5020021;28;20045;-72
2021/04/01 12:17:33;;;;;;;23.52;13.95;;;;;;;23.50;24.18;99572.78;5019116;28;20053;-72